createdAt,value
2023-01-08T00:00:00.532Z,2.50
2023-01-08T00:02:26.377Z,2.65
2023-01-08T00:04:52.213Z,2.60
2023-01-08T00:07:18.015Z,2.90
2023-01-08T00:09:43.861Z,2.67
2023-01-08T00:12:09.837Z,2.72
2023-01-08T00:14:35.831Z,2.30
2023-01-08T00:17:02.265Z,3.03
2023-01-08T00:19:28.934Z,2.33
2023-01-08T00:21:54.873Z,2.53
2023-01-08T00:24:20.770Z,2.63
2023-01-08T00:26:46.615Z,2.13
2023-01-08T00:29:12.708Z,2.67
2023-01-08T00:31:38.542Z,2.35
2023-01-08T00:34:04.422Z,2.55
2023-01-08T00:36:30.397Z,2.92
2023-01-08T00:38:59.395Z,2.47
2023-01-08T00:41:25.465Z,2.45
2023-01-08T00:43:51.351Z,2.25
2023-01-08T00:46:17.320Z,2.28
2023-01-08T00:48:43.410Z,2.05
2023-01-08T00:51:09.578Z,1.92
2023-01-08T00:53:37.417Z,2.22
2023-01-08T00:56:06.152Z,2.35
2023-01-08T00:58:32.465Z,2.28
2023-01-08T01:00:58.515Z,1.90
2023-01-08T01:03:24.618Z,2.20
2023-01-08T01:05:58.850Z,2.42
2023-01-08T01:08:25.094Z,2.28
2023-01-08T01:10:51.289Z,2.25
2023-01-08T01:13:17.125Z,2.33
2023-01-08T01:15:43.054Z,2.28
2023-01-08T01:18:09.325Z,2.05
2023-01-08T01:20:35.329Z,2.28
2023-01-08T01:23:01.133Z,1.73
2023-01-08T01:25:26.965Z,3.00
2023-01-08T01:27:52.853Z,2.20
2023-01-08T01:30:18.659Z,2.20
2023-01-08T01:32:44.388Z,2.20
2023-01-08T01:35:10.147Z,2.20
2023-01-08T01:37:36.282Z,2.53
2023-01-08T01:40:02.246Z,2.60
2023-01-08T01:42:40.506Z,2.30
2023-01-08T01:45:24.588Z,2.17
2023-01-08T01:48:00.854Z,2.50
2023-01-08T01:50:49.298Z,2.17
2023-01-08T01:53:24.158Z,2.38
2023-01-08T01:55:50.704Z,2.38
2023-01-08T01:58:28.483Z,3.17
2023-01-08T02:00:57.160Z,2.60
2023-01-08T02:03:25.309Z,2.90
2023-01-08T02:05:59.741Z,2.97
2023-01-08T02:08:25.543Z,3.05
2023-01-08T02:10:58.004Z,3.17
2023-01-08T02:13:28.760Z,3.17
2023-01-08T02:16:28.684Z,3.00
2023-01-08T02:19:13.326Z,2.75
2023-01-08T02:22:02.069Z,2.90
2023-01-08T02:25:13.018Z,2.90
2023-01-08T02:27:43.161Z,3.33
2023-01-08T02:30:10.209Z,3.30
2023-01-08T02:32:38.447Z,3.55
2023-01-08T02:35:06.354Z,3.20
2023-01-08T02:37:32.678Z,3.75
2023-01-08T02:40:10.712Z,3.42
2023-01-08T02:42:47.118Z,3.72
2023-01-08T02:45:36.530Z,3.15
2023-01-08T02:48:10.913Z,3.40
2023-01-08T02:50:42.551Z,3.95
2023-01-08T02:53:21.689Z,3.50
2023-01-08T02:55:55.787Z,3.28
2023-01-08T02:58:24.870Z,3.08
2023-01-08T03:00:52.988Z,3.70
2023-01-08T03:03:26.468Z,3.92
2023-01-08T03:05:59.665Z,3.65
2023-01-08T03:08:26.566Z,3.42
2023-01-08T03:11:00.046Z,3.42
2023-01-08T03:13:40.838Z,3.95
2023-01-08T03:16:21.008Z,3.65
2023-01-08T03:18:54.117Z,4.10
2023-01-08T03:21:21.966Z,3.90
2023-01-08T03:23:49.923Z,3.28
2023-01-08T03:26:22.555Z,4.05
2023-01-08T03:28:53.108Z,3.95
2023-01-08T03:31:20.562Z,3.55
2023-01-08T03:33:47.281Z,3.92
2023-01-08T03:36:17.505Z,3.50
2023-01-08T03:38:50.753Z,3.58
2023-01-08T03:41:22.125Z,3.72
2023-01-08T03:43:47.988Z,3.70
2023-01-08T03:46:19.709Z,3.85
2023-01-08T03:48:47.388Z,3.58
2023-01-08T03:51:13.272Z,4.10
2023-01-08T03:53:39.107Z,3.67
2023-01-08T03:56:05.317Z,3.70
2023-01-08T03:58:31.137Z,3.90
2023-01-08T04:00:57.089Z,3.70
2023-01-08T04:03:23.929Z,3.60
2023-01-08T04:05:49.789Z,3.30
2023-01-08T04:08:15.582Z,3.50
2023-01-08T04:10:41.437Z,4.07
2023-01-08T04:13:07.332Z,3.50
2023-01-08T04:15:33.631Z,3.28
2023-01-08T04:17:59.482Z,3.40
2023-01-08T04:20:25.300Z,3.50
2023-01-08T04:22:51.160Z,3.10
2023-01-08T04:25:17.203Z,2.63
2023-01-08T04:27:43.059Z,3.40
2023-01-08T04:30:09.647Z,2.42
2023-01-08T04:32:35.454Z,2.75
2023-01-08T04:35:01.285Z,2.40
2023-01-08T04:37:27.113Z,2.00
2023-01-08T04:39:53.026Z,2.20
2023-01-08T04:42:18.889Z,2.03
2023-01-08T04:44:44.636Z,1.52
2023-01-08T04:47:10.521Z,2.13
2023-01-08T04:49:36.377Z,1.73
2023-01-08T04:52:02.311Z,1.90
2023-01-08T04:54:28.136Z,2.10
2023-01-08T04:56:53.978Z,2.30
2023-01-08T04:59:19.861Z,1.77
2023-01-08T05:01:46.127Z,1.52
2023-01-08T05:04:12.117Z,2.20
2023-01-08T05:06:38.179Z,1.65
2023-01-08T05:09:04.124Z,1.98
2023-01-08T05:11:29.887Z,2.00
2023-01-08T05:13:55.977Z,2.20
2023-01-08T05:16:22.430Z,1.77
2023-01-08T05:18:48.625Z,1.70
2023-01-08T05:21:15.069Z,1.70
2023-01-08T05:23:44.968Z,1.50
2023-01-08T05:26:10.846Z,1.50
2023-01-08T05:28:36.675Z,1.60
2023-01-08T05:31:02.659Z,1.80
2023-01-08T05:33:28.583Z,1.42
2023-01-08T05:35:54.489Z,1.35
2023-01-08T05:38:20.362Z,1.60
2023-01-08T05:40:46.134Z,1.38
2023-01-08T05:43:11.978Z,1.10
2023-01-08T05:45:37.906Z,2.00
2023-01-08T05:48:06.277Z,1.40
2023-01-08T05:50:32.602Z,1.30
2023-01-08T05:52:58.838Z,1.13
2023-01-08T05:55:24.941Z,1.23
2023-01-08T05:57:50.812Z,1.95
2023-01-08T06:00:16.791Z,1.00
2023-01-08T06:02:48.879Z,1.02
2023-01-08T06:05:14.951Z,1.10
2023-01-08T06:07:40.786Z,1.17
2023-01-08T06:10:07.561Z,0.75
2023-01-08T06:12:33.379Z,1.35
2023-01-08T06:14:59.273Z,2.13
2023-01-08T06:17:25.225Z,1.20
2023-01-08T06:19:51.043Z,1.27
2023-01-08T06:22:16.897Z,1.25
2023-01-08T06:24:42.737Z,1.25
2023-01-08T06:27:08.561Z,1.02
2023-01-08T06:29:34.400Z,1.30
2023-01-08T06:32:00.242Z,1.20
2023-01-08T06:34:26.088Z,1.17
2023-01-08T06:36:51.876Z,1.20
2023-01-08T06:39:17.810Z,1.33
2023-01-08T06:41:43.852Z,1.40
2023-01-08T06:44:09.678Z,1.90
2023-01-08T06:46:39.434Z,2.67
2023-01-08T06:49:06.605Z,1.58
2023-01-08T06:51:32.449Z,1.40
2023-01-08T06:53:58.296Z,1.90
2023-01-08T06:56:24.093Z,1.52
2023-01-08T06:58:49.964Z,1.60
2023-01-08T07:01:16.561Z,1.67
2023-01-08T07:03:43.126Z,1.55
2023-01-08T07:06:15.236Z,1.50
2023-01-08T07:08:41.477Z,1.50
2023-01-08T07:11:07.496Z,1.30
2023-01-08T07:13:33.408Z,1.17
2023-01-08T07:16:07.689Z,1.20
2023-01-08T07:18:33.763Z,1.60
2023-01-08T07:20:59.701Z,1.60
2023-01-08T07:23:25.546Z,1.33
2023-01-08T07:25:51.365Z,1.40
2023-01-08T07:28:17.268Z,1.98
2023-01-08T07:30:44.052Z,1.35
2023-01-08T07:33:09.904Z,1.08
2023-01-08T07:35:37.625Z,1.25
2023-01-08T07:38:03.433Z,1.20
2023-01-08T07:40:29.363Z,1.50
2023-01-08T07:43:02.918Z,1.50
2023-01-08T07:45:29.830Z,1.40
2023-01-08T07:47:59.375Z,1.30
2023-01-08T07:50:26.388Z,1.40
2023-01-08T07:52:52.192Z,2.20
2023-01-08T07:55:17.988Z,1.90
2023-01-08T07:57:43.814Z,1.75
2023-01-08T08:00:10.417Z,1.58
2023-01-08T08:02:36.639Z,1.58
2023-01-08T08:05:02.736Z,1.70
2023-01-08T08:07:30.401Z,1.75
2023-01-08T08:09:56.392Z,1.27
2023-01-08T08:12:22.412Z,0.93
2023-01-08T08:14:48.317Z,0.90
2023-01-08T08:17:14.161Z,0.85
2023-01-08T08:19:43.040Z,0.75
2023-01-08T08:22:09.209Z,1.20
2023-01-08T08:24:35.097Z,1.00
2023-01-08T08:27:00.963Z,0.80
2023-01-08T08:29:26.801Z,1.27
2023-01-08T08:31:52.876Z,0.98
2023-01-08T08:34:21.620Z,1.10
2023-01-08T08:36:48.565Z,1.45
2023-01-08T08:39:15.310Z,1.33
2023-01-08T08:41:44.336Z,1.40
2023-01-08T08:44:10.329Z,1.85
2023-01-08T08:46:36.164Z,1.65
2023-01-08T08:49:02.212Z,1.38
2023-01-08T08:51:28.047Z,1.50
2023-01-08T08:53:53.896Z,1.52
2023-01-08T08:56:19.719Z,1.75
2023-01-08T08:58:45.771Z,1.73
2023-01-08T09:01:11.754Z,1.73
2023-01-08T09:03:38.273Z,1.23
2023-01-08T09:06:04.487Z,1.73
2023-01-08T09:08:30.359Z,1.65
2023-01-08T09:10:56.238Z,1.40
2023-01-08T09:13:24.911Z,2.03
2023-01-08T09:15:50.794Z,1.30
2023-01-08T09:18:16.679Z,1.42
2023-01-08T09:20:42.513Z,1.35
2023-01-08T09:23:08.859Z,1.55
2023-01-08T09:25:34.809Z,1.08
2023-01-08T09:28:11.765Z,1.02
2023-01-08T09:30:38.624Z,1.23
2023-01-08T09:33:05.693Z,1.10
2023-01-08T09:35:32.494Z,1.00
2023-01-08T09:37:58.715Z,1.67
2023-01-08T09:40:40.314Z,2.10
2023-01-08T09:43:07.775Z,2.67
2023-01-08T09:45:37.085Z,1.58
2023-01-08T09:48:06.985Z,1.20
2023-01-08T09:50:33.707Z,1.40
2023-01-08T09:52:59.933Z,1.70
2023-01-08T09:55:30.685Z,2.55
2023-01-08T09:57:56.705Z,1.50
2023-01-08T10:00:28.959Z,1.20
2023-01-08T10:02:55.859Z,1.42
2023-01-08T10:05:21.880Z,1.92
2023-01-08T10:07:48.112Z,0.90
2023-01-08T10:10:27.764Z,1.00
2023-01-08T10:12:54.861Z,1.20
2023-01-08T10:15:22.150Z,1.13
2023-01-08T10:17:59.962Z,1.10
2023-01-08T10:20:26.085Z,1.10
2023-01-08T10:22:53.661Z,1.00
2023-01-08T10:25:22.094Z,1.50
2023-01-08T10:27:59.501Z,1.30
2023-01-08T10:30:39.328Z,1.40
2023-01-08T10:33:17.311Z,1.35
2023-01-08T10:35:50.591Z,1.00
2023-01-08T10:38:27.973Z,1.65
2023-01-08T10:40:55.216Z,1.45
2023-01-08T10:43:34.474Z,1.40
2023-01-08T10:46:07.669Z,1.48
2023-01-08T10:48:37.571Z,1.45
2023-01-08T10:51:14.151Z,1.75
2023-01-08T10:53:40.904Z,1.35
2023-01-08T10:56:22.216Z,1.75
2023-01-08T10:58:49.115Z,1.38
2023-01-08T11:01:23.796Z,1.52
2023-01-08T11:03:56.509Z,1.97
2023-01-08T11:06:28.571Z,1.60
2023-01-08T11:08:57.607Z,1.20
2023-01-08T11:11:30.943Z,1.38
2023-01-08T11:14:02.988Z,1.13
2023-01-08T11:16:38.565Z,1.60
2023-01-08T11:21:32.477Z,1.40
2023-01-08T11:24:29.628Z,1.23
2023-01-08T11:27:16.123Z,1.17
2023-01-08T11:30:08.170Z,0.98
2023-01-08T11:32:42.534Z,0.70
2023-01-08T11:35:29.272Z,1.27
2023-01-08T11:38:01.176Z,1.55
2023-01-08T11:40:34.265Z,1.00
2023-01-08T11:43:21.615Z,1.17
2023-01-08T11:46:18.715Z,1.33
2023-01-08T11:48:47.438Z,1.30
2023-01-08T11:51:34.586Z,1.70
2023-01-08T11:54:22.233Z,1.35
2023-01-08T11:57:13.505Z,1.30
2023-01-08T11:59:48.427Z,1.20
2023-01-08T12:02:38.678Z,1.30
2023-01-08T12:05:27.283Z,1.60
2023-01-08T12:08:06.728Z,1.05
2023-01-08T12:10:50.979Z,1.27
2023-01-08T12:13:23.937Z,0.90
2023-01-08T12:16:06.546Z,1.15
2023-01-08T12:18:32.395Z,1.30
2023-01-08T12:21:18.815Z,1.05
2023-01-08T12:24:14.205Z,0.85
2023-01-08T12:26:56.235Z,0.90
2023-01-08T12:29:32.640Z,1.05
2023-01-08T12:32:08.807Z,1.17
2023-01-08T12:35:12.158Z,1.30
2023-01-08T12:37:51.973Z,1.65
2023-01-08T12:40:26.673Z,1.20
2023-01-08T12:43:00.430Z,1.20
2023-01-08T12:45:28.390Z,1.13
2023-01-08T12:48:00.151Z,1.20
2023-01-08T12:51:04.000Z,0.88
2023-01-08T12:54:08.284Z,1.27
2023-01-08T12:56:52.598Z,1.60
2023-01-08T12:59:18.944Z,1.15
2023-01-08T13:02:22.602Z,0.90
2023-01-08T13:04:48.812Z,1.15
2023-01-08T13:07:25.521Z,0.93
2023-01-08T13:09:56.783Z,0.95
2023-01-08T13:12:32.568Z,1.02
2023-01-08T13:14:58.790Z,1.30
2023-01-08T13:17:26.134Z,0.88
2023-01-08T13:19:54.943Z,0.85
2023-01-08T13:22:27.775Z,1.17
2023-01-08T13:25:16.472Z,1.20
2023-01-08T13:27:44.111Z,1.13
2023-01-08T13:30:39.563Z,1.00
2023-01-08T13:33:23.846Z,1.08
2023-01-08T13:35:49.974Z,1.10
2023-01-08T13:38:18.832Z,1.20
2023-01-08T13:40:44.698Z,1.20
2023-01-08T13:43:19.157Z,0.90
2023-01-08T13:46:24.482Z,0.70
2023-01-08T13:49:09.812Z,0.80
2023-01-08T13:51:44.837Z,1.10
2023-01-08T13:54:16.607Z,0.80
2023-01-08T13:56:48.867Z,1.00
2023-01-08T13:59:37.435Z,0.90
2023-01-08T14:02:20.465Z,0.73
2023-01-08T14:04:50.788Z,1.00
2023-01-08T14:07:17.122Z,0.93
2023-01-08T14:09:42.871Z,0.93
2023-01-08T14:12:13.775Z,0.80
2023-01-08T14:14:52.828Z,1.27
2023-01-08T14:17:22.585Z,1.23
2023-01-08T14:19:48.823Z,1.15
2023-01-08T14:22:22.758Z,1.33
2023-01-08T14:25:00.314Z,1.00
2023-01-08T14:27:28.571Z,0.85
2023-01-08T14:29:55.129Z,1.10
2023-01-08T14:32:23.449Z,1.60
2023-01-08T14:34:52.101Z,2.08
2023-01-08T14:37:18.766Z,1.75
2023-01-08T14:39:48.325Z,0.70
2023-01-08T14:42:40.460Z,1.08
2023-01-08T14:45:19.090Z,1.50
2023-01-08T14:47:48.574Z,1.20
2023-01-08T14:50:45.162Z,1.05
2023-01-08T14:53:25.148Z,1.10
2023-01-08T14:55:53.597Z,0.80
2023-01-08T14:58:25.055Z,0.70
2023-01-08T15:01:14.852Z,1.02
2023-01-08T15:03:43.416Z,0.88
2023-01-08T15:06:13.299Z,0.95
2023-01-08T15:08:43.833Z,0.82
2023-01-08T15:11:18.842Z,1.00
2023-01-08T15:13:49.671Z,1.00
2023-01-08T15:16:44.321Z,1.00
2023-01-08T15:19:16.544Z,1.23
2023-01-08T15:21:47.706Z,1.30
2023-01-08T15:24:29.646Z,1.10
2023-01-08T15:26:56.268Z,1.00
2023-01-08T15:29:33.697Z,0.85
2023-01-08T15:32:15.714Z,1.00
2023-01-08T15:34:42.927Z,1.40
2023-01-08T15:37:09.379Z,1.00
2023-01-08T15:39:35.290Z,1.00
2023-01-08T15:42:46.511Z,1.10
2023-01-08T15:45:15.218Z,1.25
2023-01-08T15:47:41.153Z,1.23
2023-01-08T15:50:07.478Z,1.00
2023-01-08T15:52:35.191Z,1.30
2023-01-08T15:55:01.477Z,1.40
2023-01-08T15:57:29.694Z,1.63
2023-01-08T15:59:56.142Z,1.52
2023-01-08T16:02:22.628Z,1.17
2023-01-08T16:04:52.537Z,1.13
2023-01-08T16:07:18.955Z,1.20
2023-01-08T16:09:44.826Z,1.13
2023-01-08T16:12:10.787Z,1.63
2023-01-08T16:14:39.511Z,1.40
2023-01-08T16:17:06.554Z,1.40
2023-01-08T16:19:33.009Z,1.38
2023-01-08T16:21:59.097Z,1.10
2023-01-08T16:24:25.419Z,1.10
2023-01-08T16:26:51.663Z,1.27
2023-01-08T16:29:22.400Z,1.50
2023-01-08T16:31:48.680Z,1.25
2023-01-08T16:34:15.256Z,1.40
2023-01-08T16:36:41.126Z,1.20
2023-01-08T16:39:07.221Z,1.13
2023-01-08T16:41:33.339Z,1.10
2023-01-08T16:43:59.384Z,1.33
2023-01-08T16:46:26.089Z,1.48
2023-01-08T16:48:51.895Z,1.70
2023-01-08T16:51:17.852Z,2.40
2023-01-08T16:53:43.771Z,2.20
2023-01-08T16:56:10.261Z,1.60
2023-01-08T16:58:36.374Z,1.63
2023-01-08T17:01:07.789Z,1.75
2023-01-08T17:03:34.244Z,1.13
2023-01-08T17:06:08.517Z,1.40
2023-01-08T17:08:39.128Z,1.15
2023-01-08T17:11:19.561Z,1.50
2023-01-08T17:13:46.171Z,1.40
2023-01-08T17:16:14.657Z,1.35
2023-01-08T17:18:40.647Z,1.00
2023-01-08T17:21:07.691Z,1.20
2023-01-08T17:23:34.259Z,1.60
2023-01-08T17:26:04.828Z,1.20
2023-01-08T17:28:31.272Z,1.20
2023-01-08T17:31:12.564Z,1.17
2023-01-08T17:33:39.436Z,0.90
2023-01-08T17:36:12.615Z,1.10
2023-01-08T17:38:38.714Z,1.63
2023-01-08T17:41:05.379Z,1.15
2023-01-08T17:43:36.510Z,1.52
2023-01-08T17:46:07.001Z,1.88
2023-01-08T17:48:33.914Z,1.40
2023-01-08T17:50:59.842Z,1.70
2023-01-08T17:53:27.185Z,1.50
2023-01-08T17:55:53.527Z,1.67
2023-01-08T17:58:19.898Z,1.70
2023-01-08T18:00:45.912Z,1.65
2023-01-08T18:03:12.028Z,1.45
2023-01-08T18:05:37.907Z,1.77
2023-01-08T18:08:04.092Z,1.40
2023-01-08T18:10:30.066Z,1.55
2023-01-08T18:12:55.974Z,1.70
2023-01-08T18:15:22.115Z,1.58
2023-01-08T18:17:49.209Z,1.60
2023-01-08T18:20:15.734Z,1.98
2023-01-08T18:22:43.572Z,1.55
2023-01-08T18:25:09.638Z,1.70
2023-01-08T18:27:35.525Z,2.88
2023-01-08T18:30:01.494Z,2.33
2023-01-08T18:32:27.427Z,1.55
2023-01-08T18:34:53.273Z,1.60
2023-01-08T18:37:19.237Z,1.50
2023-01-08T18:39:45.135Z,1.50
2023-01-08T18:42:26.265Z,1.70
2023-01-08T18:44:54.692Z,1.45
2023-01-08T18:47:21.970Z,1.45
2023-01-08T18:49:47.815Z,1.52
2023-01-08T18:52:14.514Z,2.17
2023-01-08T18:54:40.451Z,1.70
2023-01-08T18:57:06.475Z,1.85
2023-01-08T18:59:32.846Z,1.60
2023-01-08T19:01:59.202Z,2.13
2023-01-08T19:04:25.043Z,1.25
2023-01-08T19:06:51.052Z,1.17
2023-01-08T19:09:16.927Z,1.60
2023-01-08T19:11:42.913Z,1.67
2023-01-08T19:14:10.773Z,1.45
2023-01-08T19:16:36.739Z,1.33
2023-01-08T19:19:02.609Z,1.75
2023-01-08T19:21:30.381Z,1.75
2023-01-08T19:23:56.307Z,1.70
2023-01-08T19:26:22.269Z,1.50
2023-01-08T19:28:51.742Z,1.60
2023-01-08T19:31:18.029Z,1.20
2023-01-08T19:33:45.508Z,1.50
2023-01-08T19:36:12.003Z,1.50
2023-01-08T19:38:39.285Z,1.25
2023-01-08T19:41:26.204Z,1.55
2023-01-08T19:43:53.773Z,1.50
2023-01-08T19:46:19.772Z,1.75
2023-01-08T19:48:45.804Z,1.80
2023-01-08T19:51:12.606Z,1.30
2023-01-08T19:53:39.048Z,1.20
2023-01-08T19:56:07.248Z,1.08
2023-01-08T19:58:33.261Z,1.60
2023-01-08T20:00:59.679Z,1.33
2023-01-08T20:03:27.308Z,1.58
2023-01-08T20:05:53.438Z,1.45
2023-01-08T20:08:20.041Z,1.33
2023-01-08T20:10:46.092Z,1.30
2023-01-08T20:13:12.423Z,1.95
2023-01-08T20:15:38.382Z,1.85
2023-01-08T20:18:04.397Z,1.50
2023-01-08T20:20:30.477Z,1.20
2023-01-08T20:22:56.343Z,1.15
2023-01-08T20:25:22.651Z,0.90
2023-01-08T20:27:48.489Z,1.20
2023-01-08T20:30:14.668Z,1.75
2023-01-08T20:32:41.226Z,1.10
2023-01-08T20:35:07.953Z,0.90
2023-01-08T20:37:33.862Z,1.42
2023-01-08T20:39:59.753Z,1.27
2023-01-08T20:42:33.352Z,1.65
2023-01-08T20:44:59.524Z,1.30
2023-01-08T20:47:25.373Z,1.42
2023-01-08T20:49:51.143Z,1.38
2023-01-08T20:52:17.592Z,1.17
2023-01-08T20:54:43.535Z,1.35
2023-01-08T20:57:09.514Z,1.20
2023-01-08T20:59:35.551Z,1.30
2023-01-08T21:02:01.615Z,1.35
2023-01-08T21:04:27.728Z,1.05
2023-01-08T21:06:53.874Z,1.60
2023-01-08T21:09:19.910Z,1.40
2023-01-08T21:11:45.933Z,1.15
2023-01-08T21:14:11.986Z,1.25
2023-01-08T21:16:39.817Z,1.15
2023-01-08T21:19:06.336Z,1.25
2023-01-08T21:21:34.677Z,0.93
2023-01-08T21:24:05.150Z,1.08
2023-01-08T21:26:33.064Z,1.38
2023-01-08T21:29:02.368Z,1.20
2023-01-08T21:31:28.892Z,1.30
2023-01-08T21:33:56.684Z,1.23
2023-01-08T21:36:24.717Z,0.93
2023-01-08T21:38:51.349Z,1.45
2023-01-08T21:41:38.175Z,1.50
2023-01-08T21:44:28.413Z,1.27
2023-01-08T21:46:54.408Z,1.65
2023-01-08T21:49:20.547Z,1.20
2023-01-08T21:52:04.677Z,1.52
2023-01-08T21:54:30.602Z,1.55
2023-01-08T21:56:56.650Z,1.50
2023-01-08T21:59:22.503Z,1.48
2023-01-08T22:01:48.348Z,1.30
2023-01-08T22:04:14.342Z,1.13
2023-01-08T22:06:42.192Z,1.25
2023-01-08T22:09:08.554Z,1.50
2023-01-08T22:11:34.420Z,1.40
2023-01-08T22:14:00.447Z,1.55
2023-01-08T22:16:26.379Z,1.50
2023-01-08T22:18:52.521Z,1.65
2023-01-08T22:21:18.988Z,1.40
2023-01-08T22:23:44.789Z,1.55
2023-01-08T22:26:11.998Z,1.67
2023-01-08T22:28:38.624Z,1.30
2023-01-08T22:31:09.821Z,1.60
2023-01-08T22:33:36.839Z,1.60
2023-01-08T22:36:12.013Z,1.55
2023-01-08T22:38:38.412Z,1.73
2023-01-08T22:41:09.712Z,1.60
2023-01-08T22:43:35.701Z,1.90
2023-01-08T22:46:01.624Z,1.80
2023-01-08T22:48:27.586Z,1.77
2023-01-08T22:50:53.776Z,2.45
2023-01-08T22:53:20.047Z,2.00
2023-01-08T22:55:47.305Z,1.92
2023-01-08T22:58:14.736Z,2.10
2023-01-08T23:00:41.306Z,1.95
2023-01-08T23:03:07.318Z,2.72
2023-01-08T23:05:33.482Z,2.00
2023-01-08T23:08:00.106Z,1.85
2023-01-08T23:10:26.238Z,1.85
2023-01-08T23:12:52.292Z,2.15
2023-01-08T23:15:19.555Z,1.60
2023-01-08T23:17:52.191Z,1.67
2023-01-08T23:20:19.967Z,1.50
2023-01-08T23:22:46.858Z,1.80
2023-01-08T23:25:12.798Z,1.63
2023-01-08T23:27:38.979Z,1.98
2023-01-08T23:30:05.619Z,1.65
2023-01-08T23:32:31.550Z,2.00
2023-01-08T23:34:57.434Z,2.35
2023-01-08T23:37:23.276Z,1.98
2023-01-08T23:39:49.167Z,1.70
2023-01-08T23:42:15.167Z,1.52
2023-01-08T23:44:41.155Z,1.30
2023-01-08T23:47:07.143Z,1.08
2023-01-08T23:49:33.942Z,1.00
2023-01-08T23:52:01.073Z,0.80
2023-01-08T23:54:27.197Z,0.88
2023-01-08T23:56:53.049Z,0.80
2023-01-08T23:59:18.992Z,1.10
